Aviation Digital Data Service (ADDS)

Output produced by METARs form (1447 UTC 23 January 2017)
found at http://aviationweather.gov/adds/metars/
 
KLBT 231334Z 2314/2412 21010KT P6SM VCSH SCT015 OVC025 
     FM231500 24013KT P6SM VCSH BKN025 OVC100 
     TEMPO 2317/2319 5SM -SHRA BKN025 
     FM232100 28006KT P6SM OVC040